AAL3067 KGSO-KCLT
Flight info
| Callsign | AAL3067 |
|---|---|
| Flight time | 0h 24m |
| Altitude | 14000 |
| Route | CHSLY CHSLY6 |
| Aircraft | A320/M-SDE3FGHIRWY/LB1 |
Departure
| Time | 2026-04-20 18:12 |
|---|---|
| Airport | Piedmont Triad International Airport (KGSO) |
Arrival
| Time | 2026-04-20 18:36 |
|---|---|
| Airport | Charlotte Douglas International Airport (KCLT) |
| Time | Latitude | Longitude | Altitude | Speed | Heading |
|---|---|---|---|---|---|
| 2026-04-20 17:36 | 36.10361 | -79.93730 | 929 ft | 0 kts | 45° |
| 2026-04-20 18:02 | 36.10360 | -79.93730 | 923 ft | 1 kts | 44° |
| 2026-04-20 18:02 | 36.10348 | -79.93749 | 930 ft | 4 kts | 89° |
| 2026-04-20 18:02 | 36.10352 | -79.93775 | 926 ft | 0 kts | 101° |
| 2026-04-20 18:04 | 36.10346 | -79.93766 | 922 ft | 4 kts | 128° |
| 2026-04-20 18:04 | 36.10312 | -79.93727 | 924 ft | 9 kts | 137° |
| 2026-04-20 18:05 | 36.10198 | -79.93593 | 927 ft | 12 kts | 123° |
| 2026-04-20 18:05 | 36.10222 | -79.93506 | 925 ft | 11 kts | 45° |
| 2026-04-20 18:05 | 36.10286 | -79.93429 | 929 ft | 15 kts | 46° |
| 2026-04-20 18:06 | 36.10360 | -79.93327 | 929 ft | 16 kts | 47° |
| 2026-04-20 18:06 | 36.10436 | -79.93227 | 930 ft | 16 kts | 43° |
| 2026-04-20 18:06 | 36.10514 | -79.93135 | 932 ft | 15 kts | 45° |
| 2026-04-20 18:06 | 36.10588 | -79.93039 | 934 ft | 15 kts | 45° |
| 2026-04-20 18:07 | 36.10661 | -79.92947 | 936 ft | 15 kts | 46° |
| 2026-04-20 18:07 | 36.10730 | -79.92857 | 937 ft | 14 kts | 47° |
| 2026-04-20 18:07 | 36.10814 | -79.92870 | 936 ft | 16 kts | 316° |
| 2026-04-20 18:07 | 36.10903 | -79.92977 | 932 ft | 20 kts | 316° |
| 2026-04-20 18:08 | 36.11022 | -79.93119 | 926 ft | 27 kts | 315° |
| 2026-04-20 18:08 | 36.11155 | -79.93275 | 915 ft | 26 kts | 316° |
| 2026-04-20 18:08 | 36.11285 | -79.93430 | 906 ft | 26 kts | 315° |
| 2026-04-20 18:08 | 36.11374 | -79.93535 | 902 ft | 16 kts | 316° |
| 2026-04-20 18:09 | 36.11456 | -79.93629 | 899 ft | 15 kts | 322° |
| 2026-04-20 18:09 | 36.11537 | -79.93652 | 898 ft | 10 kts | 1° |
| 2026-04-20 18:09 | 36.11563 | -79.93653 | 898 ft | 0 kts | 355° |
| 2026-04-20 18:10 | 36.11580 | -79.93657 | 898 ft | 5 kts | 345° |
| 2026-04-20 18:11 | 36.11618 | -79.93697 | 898 ft | 9 kts | 313° |
| 2026-04-20 18:11 | 36.11625 | -79.93747 | 898 ft | 7 kts | 236° |
| 2026-04-20 18:11 | 36.11616 | -79.93759 | 899 ft | 2 kts | 226° |
| 2026-04-20 18:11 | 36.11490 | -79.93920 | 904 ft | 62 kts | 226° |
| 2026-04-20 18:12 | 36.11024 | -79.94510 | 918 ft | 125 kts | 225° |
| 2026-04-20 18:12 | 36.10374 | -79.95338 | 1408 ft | 132 kts | 225° |
| 2026-04-20 18:12 | 36.09723 | -79.96162 | 2051 ft | 137 kts | 233° |
| 2026-04-20 18:12 | 36.09048 | -79.97026 | 2652 ft | 144 kts | 234° |
| 2026-04-20 18:13 | 36.08306 | -79.98000 | 3017 ft | 166 kts | 237° |
| 2026-04-20 18:13 | 36.07570 | -79.99217 | 3426 ft | 189 kts | 239° |
| 2026-04-20 18:13 | 36.06770 | -80.00636 | 3871 ft | 214 kts | 240° |
| 2026-04-20 18:13 | 36.05878 | -80.02240 | 4460 ft | 239 kts | 239° |
| 2026-04-20 18:14 | 36.04903 | -80.03983 | 5262 ft | 252 kts | 239° |
| 2026-04-20 18:14 | 36.03887 | -80.05776 | 6295 ft | 256 kts | 240° |
| 2026-04-20 18:14 | 36.02861 | -80.07581 | 7372 ft | 258 kts | 240° |
| 2026-04-20 18:14 | 36.01825 | -80.09407 | 8378 ft | 262 kts | 241° |
| 2026-04-20 18:15 | 36.00770 | -80.11261 | 9359 ft | 266 kts | 241° |
| 2026-04-20 18:15 | 35.99696 | -80.13147 | 10270 ft | 274 kts | 241° |
| 2026-04-20 18:15 | 35.98555 | -80.15161 | 10655 ft | 297 kts | 240° |
| 2026-04-20 18:15 | 35.97359 | -80.17271 | 11257 ft | 309 kts | 240° |
| 2026-04-20 18:16 | 35.96112 | -80.19461 | 12039 ft | 315 kts | 240° |
| 2026-04-20 18:16 | 35.94842 | -80.21684 | 12881 ft | 319 kts | 241° |
| 2026-04-20 18:16 | 35.93550 | -80.23939 | 13671 ft | 325 kts | 242° |
| 2026-04-20 18:16 | 35.92240 | -80.26222 | 13951 ft | 327 kts | 242° |
| 2026-04-20 18:17 | 35.90924 | -80.28513 | 14013 ft | 327 kts | 242° |
| 2026-04-20 18:17 | 35.89608 | -80.30807 | 14022 ft | 327 kts | 242° |
| 2026-04-20 18:17 | 35.88293 | -80.33094 | 14016 ft | 327 kts | 242° |
| 2026-04-20 18:17 | 35.86979 | -80.35379 | 14012 ft | 327 kts | 242° |
| 2026-04-20 18:18 | 35.85689 | -80.37618 | 14001 ft | 312 kts | 241° |
| 2026-04-20 18:18 | 35.84453 | -80.39725 | 14003 ft | 297 kts | 239° |
| 2026-04-20 18:18 | 35.83086 | -80.41619 | 14005 ft | 297 kts | 232° |
| 2026-04-20 18:18 | 35.81489 | -80.43273 | 14009 ft | 303 kts | 223° |
| 2026-04-20 18:19 | 35.79718 | -80.44700 | 14014 ft | 305 kts | 220° |
| 2026-04-20 18:19 | 35.77935 | -80.46111 | 14014 ft | 305 kts | 220° |
| 2026-04-20 18:19 | 35.76153 | -80.47523 | 14006 ft | 305 kts | 220° |
| 2026-04-20 18:19 | 35.74372 | -80.48933 | 13998 ft | 304 kts | 220° |
| 2026-04-20 18:20 | 35.72590 | -80.50344 | 14005 ft | 304 kts | 220° |
| 2026-04-20 18:20 | 35.70810 | -80.51753 | 14003 ft | 305 kts | 220° |
| 2026-04-20 18:20 | 35.69023 | -80.53165 | 14003 ft | 305 kts | 220° |
| 2026-04-20 18:20 | 35.67227 | -80.54563 | 13987 ft | 306 kts | 219° |
| 2026-04-20 18:21 | 35.65418 | -80.55942 | 13994 ft | 306 kts | 218° |
| 2026-04-20 18:21 | 35.63602 | -80.57314 | 13998 ft | 306 kts | 218° |
| 2026-04-20 18:21 | 35.61787 | -80.58684 | 14004 ft | 307 kts | 218° |
| 2026-04-20 18:21 | 35.59969 | -80.60057 | 14008 ft | 306 kts | 218° |
| 2026-04-20 18:22 | 35.58156 | -80.61429 | 14011 ft | 306 kts | 218° |
| 2026-04-20 18:22 | 35.56338 | -80.62803 | 14040 ft | 306 kts | 218° |
| 2026-04-20 18:22 | 35.54523 | -80.64171 | 14028 ft | 307 kts | 218° |
| 2026-04-20 18:22 | 35.52705 | -80.65538 | 13728 ft | 305 kts | 218° |
| 2026-04-20 18:23 | 35.50899 | -80.66889 | 13470 ft | 304 kts | 218° |
| 2026-04-20 18:23 | 35.49097 | -80.68229 | 13204 ft | 302 kts | 218° |
| 2026-04-20 18:23 | 35.47303 | -80.69560 | 12941 ft | 300 kts | 217° |
| 2026-04-20 18:23 | 35.45520 | -80.70882 | 12674 ft | 299 kts | 217° |
| 2026-04-20 18:24 | 35.43752 | -80.72194 | 12340 ft | 296 kts | 217° |
| 2026-04-20 18:24 | 35.41986 | -80.73507 | 11917 ft | 297 kts | 217° |
| 2026-04-20 18:24 | 35.40227 | -80.74819 | 11579 ft | 295 kts | 217° |
| 2026-04-20 18:24 | 35.38480 | -80.76120 | 11230 ft | 293 kts | 218° |
| 2026-04-20 18:25 | 35.36745 | -80.77412 | 10888 ft | 291 kts | 218° |
| 2026-04-20 18:25 | 35.35017 | -80.78696 | 10541 ft | 290 kts | 217° |
| 2026-04-20 18:25 | 35.33312 | -80.79960 | 10396 ft | 281 kts | 217° |
| 2026-04-20 18:25 | 35.31664 | -80.81176 | 10289 ft | 272 kts | 218° |
| 2026-04-20 18:26 | 35.30067 | -80.82354 | 10169 ft | 264 kts | 218° |
| 2026-04-20 18:26 | 35.28433 | -80.83317 | 10023 ft | 260 kts | 202° |
| 2026-04-20 18:26 | 35.26657 | -80.83602 | 9821 ft | 260 kts | 183° |
| 2026-04-20 18:26 | 35.24860 | -80.83451 | 9610 ft | 257 kts | 181° |
| 2026-04-20 18:27 | 35.23080 | -80.83302 | 9349 ft | 255 kts | 181° |
| 2026-04-20 18:27 | 35.21319 | -80.83156 | 8926 ft | 253 kts | 181° |
| 2026-04-20 18:27 | 35.19568 | -80.83011 | 8471 ft | 251 kts | 181° |
| 2026-04-20 18:27 | 35.17829 | -80.82868 | 8002 ft | 250 kts | 181° |
| 2026-04-20 18:28 | 35.16103 | -80.82722 | 7566 ft | 248 kts | 181° |
| 2026-04-20 18:28 | 35.14376 | -80.82579 | 7297 ft | 249 kts | 181° |
| 2026-04-20 18:28 | 35.13238 | -80.82484 | 7110 ft | 247 kts | 181° |
| 2026-04-20 18:28 | 35.10964 | -80.82295 | 6737 ft | 247 kts | 181° |
| 2026-04-20 18:29 | 35.09250 | -80.82153 | 6462 ft | 247 kts | 181° |
| 2026-04-20 18:29 | 35.07549 | -80.82010 | 6224 ft | 244 kts | 180° |
| 2026-04-20 18:29 | 35.05867 | -80.81840 | 6005 ft | 241 kts | 179° |
| 2026-04-20 18:29 | 35.04208 | -80.81657 | 5781 ft | 238 kts | 179° |
| 2026-04-20 18:30 | 35.02562 | -80.81529 | 5483 ft | 234 kts | 189° |
| 2026-04-20 18:30 | 35.01523 | -80.81863 | 5316 ft | 225 kts | 212° |
| 2026-04-20 18:30 | 35.00429 | -80.83111 | 5084 ft | 213 kts | 246° |
| 2026-04-20 18:30 | 34.99971 | -80.84788 | 4818 ft | 208 kts | 259° |
| 2026-04-20 18:31 | 34.99675 | -80.86522 | 4573 ft | 208 kts | 261° |
| 2026-04-20 18:31 | 34.99525 | -80.88259 | 4339 ft | 205 kts | 279° |
| 2026-04-20 18:31 | 34.99967 | -80.89888 | 4113 ft | 202 kts | 301° |
| 2026-04-20 18:31 | 35.00919 | -80.91149 | 4030 ft | 207 kts | 323° |
| 2026-04-20 18:32 | 35.02231 | -80.91850 | 4031 ft | 213 kts | 345° |
| 2026-04-20 18:32 | 35.03707 | -80.92022 | 3915 ft | 211 kts | 352° |
| 2026-04-20 18:32 | 35.05163 | -80.92135 | 3681 ft | 209 kts | 353° |
| 2026-04-20 18:32 | 35.06619 | -80.92257 | 3416 ft | 211 kts | 353° |
| 2026-04-20 18:33 | 35.08070 | -80.92380 | 3115 ft | 204 kts | 352° |
| 2026-04-20 18:33 | 35.09447 | -80.92498 | 2867 ft | 195 kts | 351° |
| 2026-04-20 18:33 | 35.10754 | -80.92606 | 2614 ft | 180 kts | 352° |
| 2026-04-20 18:33 | 35.11965 | -80.92710 | 2367 ft | 168 kts | 349° |
| 2026-04-20 18:34 | 35.13074 | -80.92804 | 2158 ft | 151 kts | 350° |
| 2026-04-20 18:34 | 35.14070 | -80.92890 | 1985 ft | 139 kts | 352° |
| 2026-04-20 18:34 | 35.15012 | -80.92973 | 1795 ft | 136 kts | 353° |
| 2026-04-20 18:34 | 35.15949 | -80.93054 | 1574 ft | 135 kts | 348° |
| 2026-04-20 18:35 | 35.16896 | -80.93136 | 1401 ft | 137 kts | 349° |
| 2026-04-20 18:35 | 35.17862 | -80.93220 | 1215 ft | 140 kts | 351° |
| 2026-04-20 18:35 | 35.18842 | -80.93311 | 1035 ft | 143 kts | 351° |
| 2026-04-20 18:35 | 35.19842 | -80.93392 | 834 ft | 142 kts | 348° |
| 2026-04-20 18:36 | 35.20798 | -80.93467 | 738 ft | 125 kts | 352° |
| 2026-04-20 18:36 | 35.21437 | -80.93531 | 734 ft | 58 kts | 355° |
| 2026-04-20 18:36 | 35.21772 | -80.93563 | 735 ft | 39 kts | 357° |
| 2026-04-20 18:36 | 35.21971 | -80.93576 | 737 ft | 22 kts | 357° |
| 2026-04-20 18:37 | 35.22006 | -80.93668 | 733 ft | 16 kts | 233° |
| 2026-04-20 18:37 | 35.21925 | -80.93783 | 732 ft | 19 kts | 229° |
| 2026-04-20 18:37 | 35.21833 | -80.93907 | 732 ft | 21 kts | 228° |
| 2026-04-20 18:37 | 35.21741 | -80.94033 | 731 ft | 17 kts | 229° |
| 2026-04-20 18:38 | 35.21659 | -80.94146 | 732 ft | 16 kts | 229° |
| 2026-04-20 18:38 | 35.21629 | -80.94255 | 732 ft | 14 kts | 277° |
| 2026-04-20 18:38 | 35.21667 | -80.94368 | 732 ft | 15 kts | 337° |
| 2026-04-20 18:38 | 35.21769 | -80.94380 | 732 ft | 11 kts | 355° |
| 2026-04-20 18:39 | 35.21856 | -80.94388 | 732 ft | 14 kts | 356° |
| 2026-04-20 18:39 | 35.21911 | -80.94393 | 732 ft | 5 kts | 351° |
| 2026-04-20 18:39 | 35.21933 | -80.94419 | 732 ft | 2 kts | 304° |
| 2026-04-20 18:39 | 35.21944 | -80.94443 | 732 ft | 4 kts | 300° |
| 2026-04-20 18:40 | 35.21949 | -80.94452 | 731 ft | 0 kts | 300° |